sensor_id;sensor_type;location;lat;lon;timestamp;P1;durP1;ratioP1;P2;durP2;ratioP2
9142;SDS011;54072;47.410;8.446;2023-04-27T00:00:18;5.33;;;4.83;;
9142;SDS011;54072;47.410;8.446;2023-04-27T00:02:46;7.03;;;4.50;;
9142;SDS011;54072;47.410;8.446;2023-04-27T00:05:13;6.13;;;4.50;;
9142;SDS011;54072;47.410;8.446;2023-04-27T00:07:41;4.83;;;4.30;;
9142;SDS011;54072;47.410;8.446;2023-04-27T00:10:10;5.20;;;4.70;;
9142;SDS011;54072;47.410;8.446;2023-04-27T00:12:38;6.70;;;5.10;;
9142;SDS011;54072;47.410;8.446;2023-04-27T00:15:07;6.00;;;4.90;;
9142;SDS011;54072;47.410;8.446;2023-04-27T00:17:35;6.47;;;5.00;;
9142;SDS011;54072;47.410;8.446;2023-04-27T00:20:03;9.67;;;4.70;;
9142;SDS011;54072;47.410;8.446;2023-04-27T00:22:33;6.63;;;5.20;;
9142;SDS011;54072;47.410;8.446;2023-04-27T00:25:00;5.90;;;5.00;;
9142;SDS011;54072;47.410;8.446;2023-04-27T00:27:29;5.27;;;4.77;;
9142;SDS011;54072;47.410;8.446;2023-04-27T00:29:57;7.00;;;4.73;;
9142;SDS011;54072;47.410;8.446;2023-04-27T00:32:24;7.07;;;4.77;;
9142;SDS011;54072;47.410;8.446;2023-04-27T00:34:52;5.77;;;5.00;;
9142;SDS011;54072;47.410;8.446;2023-04-27T00:37:19;6.63;;;4.93;;
9142;SDS011;54072;47.410;8.446;2023-04-27T00:39:47;5.83;;;4.80;;
9142;SDS011;54072;47.410;8.446;2023-04-27T00:42:14;5.37;;;4.87;;
9142;SDS011;54072;47.410;8.446;2023-04-27T00:44:46;7.97;;;5.13;;
9142;SDS011;54072;47.410;8.446;2023-04-27T00:47:13;5.87;;;5.13;;
9142;SDS011;54072;47.410;8.446;2023-04-27T00:49:42;8.60;;;5.83;;
9142;SDS011;54072;47.410;8.446;2023-04-27T00:52:10;7.60;;;5.20;;
9142;SDS011;54072;47.410;8.446;2023-04-27T00:54:38;7.90;;;5.00;;
9142;SDS011;54072;47.410;8.446;2023-04-27T00:57:05;6.13;;;5.53;;
9142;SDS011;54072;47.410;8.446;2023-04-27T00:59:34;5.40;;;4.90;;
9142;SDS011;54072;47.410;8.446;2023-04-27T01:02:03;6.80;;;4.77;;
9142;SDS011;54072;47.410;8.446;2023-04-27T01:04:30;5.80;;;5.27;;
9142;SDS011;54072;47.410;8.446;2023-04-27T01:06:59;5.90;;;4.97;;
9142;SDS011;54072;47.410;8.446;2023-04-27T01:09:28;5.47;;;4.90;;
9142;SDS011;54072;47.410;8.446;2023-04-27T01:11:56;5.17;;;4.57;;
9142;SDS011;54072;47.410;8.446;2023-04-27T01:14:24;5.00;;;4.37;;
9142;SDS011;54072;47.410;8.446;2023-04-27T01:16:51;6.07;;;4.67;;
9142;SDS011;54072;47.410;8.446;2023-04-27T01:19:20;5.40;;;4.77;;
9142;SDS011;54072;47.410;8.446;2023-04-27T01:21:48;5.50;;;5.00;;
9142;SDS011;54072;47.410;8.446;2023-04-27T01:24:17;6.20;;;4.83;;
9142;SDS011;54072;47.410;8.446;2023-04-27T01:26:45;6.70;;;4.90;;
9142;SDS011;54072;47.410;8.446;2023-04-27T01:29:12;6.03;;;4.70;;
9142;SDS011;54072;47.410;8.446;2023-04-27T01:31:40;5.87;;;5.23;;
9142;SDS011;54072;47.410;8.446;2023-04-27T01:34:07;6.83;;;5.37;;
9142;SDS011;54072;47.410;8.446;2023-04-27T01:36:35;6.13;;;4.87;;
9142;SDS011;54072;47.410;8.446;2023-04-27T01:39:02;5.87;;;5.27;;
9142;SDS011;54072;47.410;8.446;2023-04-27T01:41:35;7.10;;;5.30;;
9142;SDS011;54072;47.410;8.446;2023-04-27T01:44:03;6.80;;;5.30;;
9142;SDS011;54072;47.410;8.446;2023-04-27T01:46:31;7.63;;;5.63;;
9142;SDS011;54072;47.410;8.446;2023-04-27T01:48:59;8.20;;;5.77;;
9142;SDS011;54072;47.410;8.446;2023-04-27T01:51:26;7.67;;;6.03;;
9142;SDS011;54072;47.410;8.446;2023-04-27T01:53:54;5.90;;;5.30;;
9142;SDS011;54072;47.410;8.446;2023-04-27T01:56:21;8.10;;;5.37;;
9142;SDS011;54072;47.410;8.446;2023-04-27T01:58:51;8.00;;;5.03;;
9142;SDS011;54072;47.410;8.446;2023-04-27T02:01:18;7.50;;;5.07;;
9142;SDS011;54072;47.410;8.446;2023-04-27T02:03:46;6.50;;;5.03;;
9142;SDS011;54072;47.410;8.446;2023-04-27T02:06:13;6.07;;;4.77;;
9142;SDS011;54072;47.410;8.446;2023-04-27T02:08:41;5.43;;;4.50;;
9142;SDS011;54072;47.410;8.446;2023-04-27T02:11:09;5.07;;;4.57;;
9142;SDS011;54072;47.410;8.446;2023-04-27T02:13:36;5.67;;;4.70;;
9142;SDS011;54072;47.410;8.446;2023-04-27T02:16:05;6.43;;;4.77;;
9142;SDS011;54072;47.410;8.446;2023-04-27T02:18:33;5.90;;;5.30;;
9142;SDS011;54072;47.410;8.446;2023-04-27T02:21:06;8.40;;;4.83;;
9142;SDS011;54072;47.410;8.446;2023-04-27T02:23:33;6.30;;;5.10;;
9142;SDS011;54072;47.410;8.446;2023-04-27T02:26:01;9.10;;;5.43;;
9142;SDS011;54072;47.410;8.446;2023-04-27T02:28:29;7.30;;;5.13;;
9142;SDS011;54072;47.410;8.446;2023-04-27T02:30:57;8.93;;;5.60;;
9142;SDS011;54072;47.410;8.446;2023-04-27T02:33:26;6.37;;;5.00;;
9142;SDS011;54072;47.410;8.446;2023-04-27T02:35:53;6.27;;;5.57;;
9142;SDS011;54072;47.410;8.446;2023-04-27T02:38:21;7.30;;;5.37;;
9142;SDS011;54072;47.410;8.446;2023-04-27T02:40:51;6.73;;;5.43;;
9142;SDS011;54072;47.410;8.446;2023-04-27T02:43:19;8.93;;;5.80;;
9142;SDS011;54072;47.410;8.446;2023-04-27T02:45:46;7.50;;;5.40;;
9142;SDS011;54072;47.410;8.446;2023-04-27T02:48:14;8.00;;;5.70;;
9142;SDS011;54072;47.410;8.446;2023-04-27T02:50:43;10.20;;;6.13;;
9142;SDS011;54072;47.410;8.446;2023-04-27T02:53:11;7.43;;;6.03;;
9142;SDS011;54072;47.410;8.446;2023-04-27T02:55:43;7.70;;;5.60;;
9142;SDS011;54072;47.410;8.446;2023-04-27T02:58:11;6.20;;;5.13;;
9142;SDS011;54072;47.410;8.446;2023-04-27T03:00:38;7.63;;;5.33;;
9142;SDS011;54072;47.410;8.446;2023-04-27T03:03:06;9.47;;;5.60;;
9142;SDS011;54072;47.410;8.446;2023-04-27T03:05:35;8.80;;;5.87;;
9142;SDS011;54072;47.410;8.446;2023-04-27T03:08:04;6.37;;;5.77;;
9142;SDS011;54072;47.410;8.446;2023-04-27T03:10:32;9.13;;;6.07;;
9142;SDS011;54072;47.410;8.446;2023-04-27T03:12:59;8.77;;;5.63;;
9142;SDS011;54072;47.410;8.446;2023-04-27T03:15:27;6.43;;;5.63;;
9142;SDS011;54072;47.410;8.446;2023-04-27T03:17:54;7.03;;;5.57;;
9142;SDS011;54072;47.410;8.446;2023-04-27T03:20:22;6.10;;;5.00;;
9142;SDS011;54072;47.410;8.446;2023-04-27T03:22:49;7.30;;;5.70;;
9142;SDS011;54072;47.410;8.446;2023-04-27T03:25:18;8.80;;;5.73;;
9142;SDS011;54072;47.410;8.446;2023-04-27T03:27:46;7.20;;;5.93;;
9142;SDS011;54072;47.410;8.446;2023-04-27T03:30:14;7.53;;;6.10;;
9142;SDS011;54072;47.410;8.446;2023-04-27T03:32:41;6.90;;;5.63;;
9142;SDS011;54072;47.410;8.446;2023-04-27T03:35:10;8.10;;;6.00;;
9142;SDS011;54072;47.410;8.446;2023-04-27T03:37:38;9.07;;;5.97;;
9142;SDS011;54072;47.410;8.446;2023-04-27T03:40:06;7.23;;;6.20;;
9142;SDS011;54072;47.410;8.446;2023-04-27T03:42:35;8.13;;;6.23;;
9142;SDS011;54072;47.410;8.446;2023-04-27T03:45:03;8.90;;;6.60;;
9142;SDS011;54072;47.410;8.446;2023-04-27T03:47:31;8.37;;;6.47;;
9142;SDS011;54072;47.410;8.446;2023-04-27T03:49:59;12.40;;;7.07;;
9142;SDS011;54072;47.410;8.446;2023-04-27T03:52:26;10.77;;;6.63;;
9142;SDS011;54072;47.410;8.446;2023-04-27T03:54:54;8.80;;;6.50;;
9142;SDS011;54072;47.410;8.446;2023-04-27T03:57:21;11.47;;;7.07;;
9142;SDS011;54072;47.410;8.446;2023-04-27T03:59:50;7.80;;;6.13;;
9142;SDS011;54072;47.410;8.446;2023-04-27T04:02:17;8.53;;;6.47;;
9142;SDS011;54072;47.410;8.446;2023-04-27T04:04:45;9.00;;;6.80;;
9142;SDS011;54072;47.410;8.446;2023-04-27T04:07:13;9.90;;;6.83;;
9142;SDS011;54072;47.410;8.446;2023-04-27T04:09:40;10.67;;;7.50;;
9142;SDS011;54072;47.410;8.446;2023-04-27T04:12:08;10.27;;;6.87;;
9142;SDS011;54072;47.410;8.446;2023-04-27T04:14:36;10.43;;;6.53;;
9142;SDS011;54072;47.410;8.446;2023-04-27T04:17:05;10.90;;;6.80;;
9142;SDS011;54072;47.410;8.446;2023-04-27T04:19:32;8.40;;;6.23;;
9142;SDS011;54072;47.410;8.446;2023-04-27T04:22:00;9.90;;;7.10;;
9142;SDS011;54072;47.410;8.446;2023-04-27T04:24:27;11.13;;;7.53;;
9142;SDS011;54072;47.410;8.446;2023-04-27T04:26:55;10.60;;;7.67;;
9142;SDS011;54072;47.410;8.446;2023-04-27T04:29:23;12.77;;;7.77;;
9142;SDS011;54072;47.410;8.446;2023-04-27T04:31:52;13.87;;;8.80;;
9142;SDS011;54072;47.410;8.446;2023-04-27T04:34:21;12.47;;;8.37;;
9142;SDS011;54072;47.410;8.446;2023-04-27T04:36:49;12.77;;;8.07;;
9142;SDS011;54072;47.410;8.446;2023-04-27T04:39:17;17.80;;;8.23;;
9142;SDS011;54072;47.410;8.446;2023-04-27T04:41:46;9.70;;;7.80;;
9142;SDS011;54072;47.410;8.446;2023-04-27T04:44:14;11.67;;;8.40;;
9142;SDS011;54072;47.410;8.446;2023-04-27T04:46:42;10.80;;;8.20;;
9142;SDS011;54072;47.410;8.446;2023-04-27T04:49:09;15.53;;;8.50;;
9142;SDS011;54072;47.410;8.446;2023-04-27T04:51:41;9.77;;;7.90;;
9142;SDS011;54072;47.410;8.446;2023-04-27T04:54:09;9.67;;;8.43;;
9142;SDS011;54072;47.410;8.446;2023-04-27T04:56:36;10.40;;;8.20;;
9142;SDS011;54072;47.410;8.446;2023-04-27T04:59:04;12.10;;;8.13;;
9142;SDS011;54072;47.410;8.446;2023-04-27T05:01:31;11.47;;;7.93;;
9142;SDS011;54072;47.410;8.446;2023-04-27T05:03:59;10.17;;;7.13;;
9142;SDS011;54072;47.410;8.446;2023-04-27T05:06:27;9.87;;;7.73;;
9142;SDS011;54072;47.410;8.446;2023-04-27T05:08:56;12.00;;;7.73;;
9142;SDS011;54072;47.410;8.446;2023-04-27T05:11:23;12.97;;;8.37;;
9142;SDS011;54072;47.410;8.446;2023-04-27T05:13:51;10.03;;;8.10;;
9142;SDS011;54072;47.410;8.446;2023-04-27T05:16:18;10.90;;;8.40;;
9142;SDS011;54072;47.410;8.446;2023-04-27T05:18:46;11.57;;;8.37;;
9142;SDS011;54072;47.410;8.446;2023-04-27T05:21:13;10.33;;;8.40;;
9142;SDS011;54072;47.410;8.446;2023-04-27T05:23:41;13.23;;;8.70;;
9142;SDS011;54072;47.410;8.446;2023-04-27T05:26:13;11.57;;;8.00;;
9142;SDS011;54072;47.410;8.446;2023-04-27T05:28:41;9.13;;;7.73;;
9142;SDS011;54072;47.410;8.446;2023-04-27T05:31:09;8.00;;;7.20;;
9142;SDS011;54072;47.410;8.446;2023-04-27T05:33:36;9.53;;;7.13;;
9142;SDS011;54072;47.410;8.446;2023-04-27T05:36:04;10.10;;;7.57;;
9142;SDS011;54072;47.410;8.446;2023-04-27T05:38:31;9.30;;;7.57;;
9142;SDS011;54072;47.410;8.446;2023-04-27T05:41:01;8.43;;;7.43;;
9142;SDS011;54072;47.410;8.446;2023-04-27T05:43:30;10.97;;;7.80;;
9142;SDS011;54072;47.410;8.446;2023-04-27T05:45:57;9.10;;;6.93;;
9142;SDS011;54072;47.410;8.446;2023-04-27T05:48:25;9.13;;;7.27;;
9142;SDS011;54072;47.410;8.446;2023-04-27T05:50:57;10.10;;;7.23;;
9142;SDS011;54072;47.410;8.446;2023-04-27T05:53:25;7.73;;;6.50;;
9142;SDS011;54072;47.410;8.446;2023-04-27T05:55:52;10.53;;;7.03;;
9142;SDS011;54072;47.410;8.446;2023-04-27T05:58:20;12.27;;;7.23;;
9142;SDS011;54072;47.410;8.446;2023-04-27T06:00:49;9.07;;;7.03;;
9142;SDS011;54072;47.410;8.446;2023-04-27T06:03:17;10.00;;;7.60;;
9142;SDS011;54072;47.410;8.446;2023-04-27T06:05:45;8.03;;;7.13;;
9142;SDS011;54072;47.410;8.446;2023-04-27T06:08:12;11.10;;;6.80;;
9142;SDS011;54072;47.410;8.446;2023-04-27T06:10:40;8.97;;;6.67;;
9142;SDS011;54072;47.410;8.446;2023-04-27T06:13:08;8.83;;;7.33;;
9142;SDS011;54072;47.410;8.446;2023-04-27T06:15:35;9.90;;;7.30;;
9142;SDS011;54072;47.410;8.446;2023-04-27T06:18:04;8.70;;;6.87;;
9142;SDS011;54072;47.410;8.446;2023-04-27T06:20:32;8.70;;;7.40;;
9142;SDS011;54072;47.410;8.446;2023-04-27T06:23:00;9.90;;;7.60;;
9142;SDS011;54072;47.410;8.446;2023-04-27T06:25:27;9.20;;;7.37;;
9142;SDS011;54072;47.410;8.446;2023-04-27T06:27:55;11.17;;;7.33;;
9142;SDS011;54072;47.410;8.446;2023-04-27T06:30:22;11.10;;;7.70;;
9142;SDS011;54072;47.410;8.446;2023-04-27T06:32:50;9.23;;;6.83;;
9142;SDS011;54072;47.410;8.446;2023-04-27T06:35:20;12.80;;;7.50;;
9142;SDS011;54072;47.410;8.446;2023-04-27T06:37:47;10.77;;;7.37;;
9142;SDS011;54072;47.410;8.446;2023-04-27T06:40:15;10.97;;;7.73;;
9142;SDS011;54072;47.410;8.446;2023-04-27T06:42:42;8.93;;;7.50;;
9142;SDS011;54072;47.410;8.446;2023-04-27T06:45:10;11.20;;;7.70;;
9142;SDS011;54072;47.410;8.446;2023-04-27T06:47:38;9.30;;;7.00;;
9142;SDS011;54072;47.410;8.446;2023-04-27T06:50:05;11.23;;;7.37;;
9142;SDS011;54072;47.410;8.446;2023-04-27T06:52:34;8.80;;;7.37;;
9142;SDS011;54072;47.410;8.446;2023-04-27T06:55:02;11.03;;;8.07;;
9142;SDS011;54072;47.410;8.446;2023-04-27T06:57:29;10.97;;;7.60;;
9142;SDS011;54072;47.410;8.446;2023-04-27T06:59:57;12.83;;;7.43;;
9142;SDS011;54072;47.410;8.446;2023-04-27T07:02:24;8.40;;;7.27;;
9142;SDS011;54072;47.410;8.446;2023-04-27T07:04:52;8.77;;;7.87;;
9142;SDS011;54072;47.410;8.446;2023-04-27T07:07:20;9.07;;;7.83;;
9142;SDS011;54072;47.410;8.446;2023-04-27T07:09:49;10.63;;;8.00;;
9142;SDS011;54072;47.410;8.446;2023-04-27T07:12:17;10.27;;;8.40;;
9142;SDS011;54072;47.410;8.446;2023-04-27T07:14:44;9.00;;;7.47;;
9142;SDS011;54072;47.410;8.446;2023-04-27T07:17:12;13.50;;;8.03;;
9142;SDS011;54072;47.410;8.446;2023-04-27T07:19:39;9.60;;;8.10;;
9142;SDS011;54072;47.410;8.446;2023-04-27T07:22:07;9.40;;;7.83;;
9142;SDS011;54072;47.410;8.446;2023-04-27T07:24:35;10.53;;;7.47;;
9142;SDS011;54072;47.410;8.446;2023-04-27T07:27:04;8.73;;;7.20;;
9142;SDS011;54072;47.410;8.446;2023-04-27T07:29:31;8.00;;;6.80;;
9142;SDS011;54072;47.410;8.446;2023-04-27T07:31:59;10.53;;;7.50;;
9142;SDS011;54072;47.410;8.446;2023-04-27T07:34:26;10.27;;;7.70;;
9142;SDS011;54072;47.410;8.446;2023-04-27T07:37:00;8.87;;;7.60;;
9142;SDS011;54072;47.410;8.446;2023-04-27T07:39:28;8.10;;;6.93;;
9142;SDS011;54072;47.410;8.446;2023-04-27T07:41:56;8.10;;;7.20;;
9142;SDS011;54072;47.410;8.446;2023-04-27T07:44:25;10.00;;;6.97;;
9142;SDS011;54072;47.410;8.446;2023-04-27T07:46:54;8.33;;;6.53;;
9142;SDS011;54072;47.410;8.446;2023-04-27T07:49:23;7.57;;;6.63;;
9142;SDS011;54072;47.410;8.446;2023-04-27T07:51:51;7.10;;;6.00;;
9142;SDS011;54072;47.410;8.446;2023-04-27T07:54:19;9.37;;;7.07;;
9142;SDS011;54072;47.410;8.446;2023-04-27T07:56:46;8.17;;;7.13;;
9142;SDS011;54072;47.410;8.446;2023-04-27T07:59:14;8.20;;;6.30;;
9142;SDS011;54072;47.410;8.446;2023-04-27T08:01:43;7.97;;;6.50;;
9142;SDS011;54072;47.410;8.446;2023-04-27T08:04:10;7.93;;;6.17;;
9142;SDS011;54072;47.410;8.446;2023-04-27T08:06:38;8.77;;;6.20;;
9142;SDS011;54072;47.410;8.446;2023-04-27T08:09:06;9.07;;;6.00;;
9142;SDS011;54072;47.410;8.446;2023-04-27T08:11:34;7.20;;;5.40;;
9142;SDS011;54072;47.410;8.446;2023-04-27T08:14:02;5.47;;;4.97;;
9142;SDS011;54072;47.410;8.446;2023-04-27T08:16:29;7.27;;;5.63;;
9142;SDS011;54072;47.410;8.446;2023-04-27T08:18:59;5.23;;;4.80;;
9142;SDS011;54072;47.410;8.446;2023-04-27T08:21:26;7.73;;;4.83;;
9142;SDS011;54072;47.410;8.446;2023-04-27T08:23:55;6.40;;;5.13;;
9142;SDS011;54072;47.410;8.446;2023-04-27T08:26:23;5.50;;;4.80;;
9142;SDS011;54072;47.410;8.446;2023-04-27T08:28:51;5.43;;;4.93;;
9142;SDS011;54072;47.410;8.446;2023-04-27T08:31:18;6.07;;;5.00;;
9142;SDS011;54072;47.410;8.446;2023-04-27T08:33:47;6.57;;;5.43;;
9142;SDS011;54072;47.410;8.446;2023-04-27T08:36:16;5.93;;;4.97;;
9142;SDS011;54072;47.410;8.446;2023-04-27T08:38:43;5.10;;;4.60;;
9142;SDS011;54072;47.410;8.446;2023-04-27T08:41:16;8.83;;;5.00;;
9142;SDS011;54072;47.410;8.446;2023-04-27T08:43:46;7.07;;;5.23;;
9142;SDS011;54072;47.410;8.446;2023-04-27T08:46:17;6.20;;;4.87;;
9142;SDS011;54072;47.410;8.446;2023-04-27T08:48:44;5.73;;;4.47;;
9142;SDS011;54072;47.410;8.446;2023-04-27T08:51:13;7.30;;;5.00;;
9142;SDS011;54072;47.410;8.446;2023-04-27T08:53:46;5.17;;;4.67;;
9142;SDS011;54072;47.410;8.446;2023-04-27T08:56:14;5.90;;;4.90;;
9142;SDS011;54072;47.410;8.446;2023-04-27T08:58:41;5.17;;;4.70;;
9142;SDS011;54072;47.410;8.446;2023-04-27T09:01:09;4.77;;;4.17;;
9142;SDS011;54072;47.410;8.446;2023-04-27T09:03:37;50.70;;;6.63;;
9142;SDS011;54072;47.410;8.446;2023-04-27T09:06:05;4.17;;;3.70;;
9142;SDS011;54072;47.410;8.446;2023-04-27T09:08:42;6.80;;;4.10;;
9142;SDS011;54072;47.410;8.446;2023-04-27T09:11:11;6.17;;;4.27;;
9142;SDS011;54072;47.410;8.446;2023-04-27T09:13:40;5.67;;;4.30;;
9142;SDS011;54072;47.410;8.446;2023-04-27T09:16:10;5.23;;;3.90;;
9142;SDS011;54072;47.410;8.446;2023-04-27T09:18:40;4.47;;;3.60;;
9142;SDS011;54072;47.410;8.446;2023-04-27T09:21:08;6.73;;;3.60;;
9142;SDS011;54072;47.410;8.446;2023-04-27T09:23:36;4.90;;;3.70;;
9142;SDS011;54072;47.410;8.446;2023-04-27T09:26:05;4.70;;;3.30;;
9142;SDS011;54072;47.410;8.446;2023-04-27T09:28:36;3.77;;;3.37;;
9142;SDS011;54072;47.410;8.446;2023-04-27T09:31:04;5.47;;;3.20;;
9142;SDS011;54072;47.410;8.446;2023-04-27T09:33:34;7.47;;;3.33;;
9142;SDS011;54072;47.410;8.446;2023-04-27T09:36:03;5.87;;;3.40;;
9142;SDS011;54072;47.410;8.446;2023-04-27T09:38:31;5.27;;;3.03;;
9142;SDS011;54072;47.410;8.446;2023-04-27T09:40:58;5.40;;;3.37;;
9142;SDS011;54072;47.410;8.446;2023-04-27T09:43:26;4.97;;;3.60;;
9142;SDS011;54072;47.410;8.446;2023-04-27T09:45:56;4.40;;;4.00;;
9142;SDS011;54072;47.410;8.446;2023-04-27T09:48:24;4.23;;;3.70;;
9142;SDS011;54072;47.410;8.446;2023-04-27T09:50:52;4.17;;;3.37;;
9142;SDS011;54072;47.410;8.446;2023-04-27T09:53:20;6.47;;;3.40;;
9142;SDS011;54072;47.410;8.446;2023-04-27T09:55:51;6.72;;;3.75;;
9142;SDS011;54072;47.410;8.446;2023-04-27T09:58:26;3.85;;;3.30;;
9142;SDS011;54072;47.410;8.446;2023-04-27T10:01:02;4.32;;;3.65;;
9142;SDS011;54072;47.410;8.446;2023-04-27T10:03:32;3.97;;;3.58;;
9142;SDS011;54072;47.410;8.446;2023-04-27T10:06:20;4.43;;;3.38;;
9142;SDS011;54072;47.410;8.446;2023-04-27T10:08:55;4.22;;;3.75;;
9142;SDS011;54072;47.410;8.446;2023-04-27T10:11:32;4.15;;;3.75;;
9142;SDS011;54072;47.410;8.446;2023-04-27T10:14:04;4.65;;;3.20;;
9142;SDS011;54072;47.410;8.446;2023-04-27T10:16:42;3.67;;;3.17;;
9142;SDS011;54072;47.410;8.446;2023-04-27T10:19:10;3.97;;;2.85;;
9142;SDS011;54072;47.410;8.446;2023-04-27T10:21:38;4.57;;;3.20;;
9142;SDS011;54072;47.410;8.446;2023-04-27T10:24:16;3.00;;;2.75;;
9142;SDS011;54072;47.410;8.446;2023-04-27T10:26:45;4.35;;;3.10;;
9142;SDS011;54072;47.410;8.446;2023-04-27T10:29:12;3.97;;;2.90;;
9142;SDS011;54072;47.410;8.446;2023-04-27T10:31:47;4.72;;;2.60;;
9142;SDS011;54072;47.410;8.446;2023-04-27T10:34:15;2.95;;;2.65;;
9142;SDS011;54072;47.410;8.446;2023-04-27T10:36:44;2.85;;;2.17;;
9142;SDS011;54072;47.410;8.446;2023-04-27T10:39:15;3.38;;;2.20;;
9142;SDS011;54072;47.410;8.446;2023-04-27T10:41:49;2.05;;;1.95;;
9142;SDS011;54072;47.410;8.446;2023-04-27T10:44:18;2.25;;;2.10;;
9142;SDS011;54072;47.410;8.446;2023-04-27T10:46:50;2.30;;;2.20;;
9142;SDS011;54072;47.410;8.446;2023-04-27T10:49:18;2.80;;;2.60;;
9142;SDS011;54072;47.410;8.446;2023-04-27T10:51:46;2.45;;;2.20;;
9142;SDS011;54072;47.410;8.446;2023-04-27T10:54:13;2.60;;;2.40;;
9142;SDS011;54072;47.410;8.446;2023-04-27T10:56:41;4.00;;;2.38;;
9142;SDS011;54072;47.410;8.446;2023-04-27T10:59:08;2.28;;;2.08;;
9142;SDS011;54072;47.410;8.446;2023-04-27T11:01:36;2.83;;;2.00;;
9142;SDS011;54072;47.410;8.446;2023-04-27T11:04:05;3.42;;;2.10;;
9142;SDS011;54072;47.410;8.446;2023-04-27T11:06:40;3.33;;;2.13;;
9142;SDS011;54072;47.410;8.446;2023-04-27T11:09:08;2.35;;;2.10;;
9142;SDS011;54072;47.410;8.446;2023-04-27T11:11:36;2.63;;;2.40;;
9142;SDS011;54072;47.410;8.446;2023-04-27T11:14:03;2.63;;;2.10;;
9142;SDS011;54072;47.410;8.446;2023-04-27T11:16:32;3.78;;;2.42;;
9142;SDS011;54072;47.410;8.446;2023-04-27T11:19:04;2.70;;;2.50;;
9142;SDS011;54072;47.410;8.446;2023-04-27T11:21:31;2.47;;;2.28;;
9142;SDS011;54072;47.410;8.446;2023-04-27T11:24:02;3.45;;;2.30;;
9142;SDS011;54072;47.410;8.446;2023-04-27T11:26:31;2.80;;;2.60;;
9142;SDS011;54072;47.410;8.446;2023-04-27T11:28:59;2.50;;;2.03;;
9142;SDS011;54072;47.410;8.446;2023-04-27T11:31:36;2.70;;;2.50;;
9142;SDS011;54072;47.410;8.446;2023-04-27T11:34:06;3.20;;;2.55;;
9142;SDS011;54072;47.410;8.446;2023-04-27T11:36:33;2.83;;;2.30;;
9142;SDS011;54072;47.410;8.446;2023-04-27T11:39:02;4.03;;;2.60;;
9142;SDS011;54072;47.410;8.446;2023-04-27T11:41:32;2.47;;;2.30;;
9142;SDS011;54072;47.410;8.446;2023-04-27T11:44:03;2.20;;;1.80;;
9142;SDS011;54072;47.410;8.446;2023-04-27T11:46:31;1.92;;;1.83;;
9142;SDS011;54072;47.410;8.446;2023-04-27T11:49:00;2.00;;;1.90;;
9142;SDS011;54072;47.410;8.446;2023-04-27T11:51:29;2.05;;;1.75;;
9142;SDS011;54072;47.410;8.446;2023-04-27T11:53:59;2.40;;;2.20;;
9142;SDS011;54072;47.410;8.446;2023-04-27T11:56:32;2.35;;;2.15;;
9142;SDS011;54072;47.410;8.446;2023-04-27T11:59:00;2.13;;;1.92;;
9142;SDS011;54072;47.410;8.446;2023-04-27T12:01:29;3.45;;;2.30;;
9142;SDS011;54072;47.410;8.446;2023-04-27T12:04:02;2.72;;;2.53;;
9142;SDS011;54072;47.410;8.446;2023-04-27T12:06:31;2.70;;;2.50;;
9142;SDS011;54072;47.410;8.446;2023-04-27T12:08:59;2.92;;;2.42;;
9142;SDS011;54072;47.410;8.446;2023-04-27T12:11:26;2.58;;;2.10;;
9142;SDS011;54072;47.410;8.446;2023-04-27T12:13:54;2.67;;;2.38;;
9142;SDS011;54072;47.410;8.446;2023-04-27T12:16:21;2.40;;;2.20;;
9142;SDS011;54072;47.410;8.446;2023-04-27T12:18:49;2.67;;;2.10;;
9142;SDS011;54072;47.410;8.446;2023-04-27T12:21:16;2.97;;;2.38;;
9142;SDS011;54072;47.410;8.446;2023-04-27T12:23:45;2.17;;;2.00;;
9142;SDS011;54072;47.410;8.446;2023-04-27T12:26:13;2.10;;;2.00;;
9142;SDS011;54072;47.410;8.446;2023-04-27T12:28:40;2.40;;;2.20;;
9142;SDS011;54072;47.410;8.446;2023-04-27T12:31:11;2.40;;;1.90;;
9142;SDS011;54072;47.410;8.446;2023-04-27T12:33:39;2.20;;;2.10;;
9142;SDS011;54072;47.410;8.446;2023-04-27T12:36:07;2.30;;;2.10;;
9142;SDS011;54072;47.410;8.446;2023-04-27T12:38:34;2.65;;;2.28;;
9142;SDS011;54072;47.410;8.446;2023-04-27T12:41:03;2.10;;;2.00;;
9142;SDS011;54072;47.410;8.446;2023-04-27T12:43:31;2.05;;;1.95;;
9142;SDS011;54072;47.410;8.446;2023-04-27T12:46:00;2.30;;;2.20;;
9142;SDS011;54072;47.410;8.446;2023-04-27T12:48:28;2.20;;;2.10;;
9142;SDS011;54072;47.410;8.446;2023-04-27T12:50:55;2.30;;;2.10;;
9142;SDS011;54072;47.410;8.446;2023-04-27T12:53:23;2.47;;;2.10;;
9142;SDS011;54072;47.410;8.446;2023-04-27T12:55:50;2.45;;;2.17;;
9142;SDS011;54072;47.410;8.446;2023-04-27T12:58:20;3.03;;;1.90;;
9142;SDS011;54072;47.410;8.446;2023-04-27T13:00:47;3.97;;;2.35;;
9142;SDS011;54072;47.410;8.446;2023-04-27T13:03:15;5.40;;;1.88;;
9142;SDS011;54072;47.410;8.446;2023-04-27T13:05:42;2.40;;;1.73;;
9142;SDS011;54072;47.410;8.446;2023-04-27T13:08:10;2.83;;;2.10;;
9142;SDS011;54072;47.410;8.446;2023-04-27T13:10:38;2.03;;;1.92;;
9142;SDS011;54072;47.410;8.446;2023-04-27T13:13:06;2.95;;;1.83;;
9142;SDS011;54072;47.410;8.446;2023-04-27T13:15:36;4.95;;;2.10;;
9142;SDS011;54072;47.410;8.446;2023-04-27T13:18:04;2.35;;;2.15;;
9142;SDS011;54072;47.410;8.446;2023-04-27T13:20:31;2.80;;;2.10;;
9142;SDS011;54072;47.410;8.446;2023-04-27T13:22:59;2.15;;;1.95;;
9142;SDS011;54072;47.410;8.446;2023-04-27T13:25:26;2.55;;;2.17;;
9142;SDS011;54072;47.410;8.446;2023-04-27T13:27:54;2.72;;;2.00;;
9142;SDS011;54072;47.410;8.446;2023-04-27T13:30:23;3.17;;;2.05;;
9142;SDS011;54072;47.410;8.446;2023-04-27T13:32:52;2.10;;;1.90;;
9142;SDS011;54072;47.410;8.446;2023-04-27T13:35:19;2.03;;;1.88;;
9142;SDS011;54072;47.410;8.446;2023-04-27T13:37:47;2.03;;;1.92;;
9142;SDS011;54072;47.410;8.446;2023-04-27T13:40:14;5.63;;;1.90;;
9142;SDS011;54072;47.410;8.446;2023-04-27T13:42:42;2.25;;;2.13;;
9142;SDS011;54072;47.410;8.446;2023-04-27T13:45:10;3.17;;;2.20;;
9142;SDS011;54072;47.410;8.446;2023-04-27T13:47:38;2.40;;;2.20;;
9142;SDS011;54072;47.410;8.446;2023-04-27T13:50:07;3.15;;;2.10;;
9142;SDS011;54072;47.410;8.446;2023-04-27T13:52:36;2.47;;;2.28;;
9142;SDS011;54072;47.410;8.446;2023-04-27T13:55:03;2.10;;;1.98;;
9142;SDS011;54072;47.410;8.446;2023-04-27T13:57:31;2.42;;;2.20;;
9142;SDS011;54072;47.410;8.446;2023-04-27T13:59:59;2.45;;;2.15;;
9142;SDS011;54072;47.410;8.446;2023-04-27T14:02:27;2.90;;;2.30;;
9142;SDS011;54072;47.410;8.446;2023-04-27T14:04:55;3.50;;;2.15;;
9142;SDS011;54072;47.410;8.446;2023-04-27T14:07:24;2.28;;;2.08;;
9142;SDS011;54072;47.410;8.446;2023-04-27T14:09:51;2.40;;;2.20;;
9142;SDS011;54072;47.410;8.446;2023-04-27T14:12:19;2.15;;;1.92;;
9142;SDS011;54072;47.410;8.446;2023-04-27T14:14:46;2.40;;;2.20;;
9142;SDS011;54072;47.410;8.446;2023-04-27T14:17:14;2.50;;;2.30;;
9142;SDS011;54072;47.410;8.446;2023-04-27T14:19:41;3.65;;;2.20;;
9142;SDS011;54072;47.410;8.446;2023-04-27T14:22:09;2.40;;;2.13;;
9142;SDS011;54072;47.410;8.446;2023-04-27T14:24:38;3.60;;;2.05;;
9142;SDS011;54072;47.410;8.446;2023-04-27T14:27:05;2.33;;;2.13;;
9142;SDS011;54072;47.410;8.446;2023-04-27T14:29:33;4.50;;;2.03;;
9142;SDS011;54072;47.410;8.446;2023-04-27T14:32:01;2.20;;;2.00;;
9142;SDS011;54072;47.410;8.446;2023-04-27T14:34:29;2.30;;;2.03;;
9142;SDS011;54072;47.410;8.446;2023-04-27T14:36:56;2.33;;;1.80;;
9142;SDS011;54072;47.410;8.446;2023-04-27T14:39:23;2.33;;;2.13;;
9142;SDS011;54072;47.410;8.446;2023-04-27T14:41:54;2.00;;;1.90;;
9142;SDS011;54072;47.410;8.446;2023-04-27T14:44:22;2.10;;;2.00;;
9142;SDS011;54072;47.410;8.446;2023-04-27T14:46:49;2.20;;;2.00;;
9142;SDS011;54072;47.410;8.446;2023-04-27T14:49:17;2.40;;;2.20;;
9142;SDS011;54072;47.410;8.446;2023-04-27T14:51:44;2.20;;;2.00;;
9142;SDS011;54072;47.410;8.446;2023-04-27T14:54:12;2.30;;;2.20;;
9142;SDS011;54072;47.410;8.446;2023-04-27T14:56:39;2.88;;;2.03;;
9142;SDS011;54072;47.410;8.446;2023-04-27T14:59:08;3.13;;;1.90;;
9142;SDS011;54072;47.410;8.446;2023-04-27T15:01:36;2.40;;;2.20;;
9142;SDS011;54072;47.410;8.446;2023-04-27T15:04:03;2.50;;;2.10;;
9142;SDS011;54072;47.410;8.446;2023-04-27T15:06:31;2.80;;;2.28;;